Time,TemperatureF,DewpointF,PressureIn,WindDirection,WindDirectionDegrees,WindSpeedMPH,WindSpeedGustMPH,Humidity,HourlyPrecipIn,Conditions,Clouds,dailyrainin,SoftwareType,DateUTC
2013-07-03 00:00:00,69.6,69.3,30.06,NW,315,0.0,0.0,99,0.00,RA,,0.00,WeatherDisplay:10.37,2013-07-03 04:00:00,
2013-07-03 00:01:00,69.6,69.3,30.06,NW,315,0.0,0.0,99,0.00,RA,,0.00,WeatherDisplay:10.37,2013-07-03 04:01:00,
2013-07-03 00:03:00,69.6,69.3,30.06,NW,315,0.0,0.0,99,0.00,RA,,0.00,WeatherDisplay:10.37,2013-07-03 04:03:00,
2013-07-03 00:04:00,69.6,69.3,30.06,NW,315,0.0,0.0,99,0.00,RA,,0.00,WeatherDisplay:10.37,2013-07-03 04:04:00,
2013-07-03 00:09:00,69.6,69.3,30.08,South,180,8.1,8.1,99,0.00,RA,,0.00,WeatherDisplay:10.37,2013-07-03 04:09:00,
2013-07-03 00:14:00,69.8,69.2,30.09,South,180,17.3,17.3,98,0.02,RA,,0.13,WeatherDisplay:10.37,2013-07-03 04:14:00,
2013-07-03 00:19:00,69.3,69.0,30.09,SW,225,17.3,17.3,99,0.17,RA,,0.24,WeatherDisplay:10.37,2013-07-03 04:19:00,
2013-07-03 00:24:00,68.5,68.2,30.08,NW,315,1.1,0.0,99,0.22,RA,,0.30,WeatherDisplay:10.37,2013-07-03 04:24:00,
2013-07-03 00:29:00,68.4,68.1,30.07,North,0,4.6,4.6,99,0.24,RA,,0.31,WeatherDisplay:10.37,2013-07-03 04:29:00,
2013-07-03 00:31:00,68.2,67.9,30.07,NE,45,4.6,4.6,99,0.24,RA,,0.31,WeatherDisplay:10.37,2013-07-03 04:31:00,
2013-07-03 00:32:00,68.2,67.9,30.07,NE,45,4.6,0.0,99,0.24,RA,,0.31,WeatherDisplay:10.37,2013-07-03 04:32:00,
2013-07-03 00:37:00,68.0,67.7,30.07,North,0,0.0,1.3,99,0.24,CLR,,0.31,WeatherDisplay:10.37,2013-07-03 04:37:00,
2013-07-03 00:42:00,67.8,67.5,30.06,East,90,0.0,0.0,99,0.24,CLR,,0.31,WeatherDisplay:10.37,2013-07-03 04:42:00,
2013-07-03 00:45:00,67.8,67.5,30.07,SW,225,2.3,0.0,99,0.24,CLR,,0.31,WeatherDisplay:10.37,2013-07-03 04:45:00,
2013-07-03 00:46:00,67.6,67.3,30.07,West,270,0.0,0.0,99,0.24,CLR,,0.31,WeatherDisplay:10.37,2013-07-03 04:46:00,
2013-07-03 00:51:00,67.6,67.3,30.07,SE,135,2.3,0.0,99,0.24,CLR,,0.31,WeatherDisplay:10.37,2013-07-03 04:51:00,
2013-07-03 00:53:00,67.6,67.3,30.08,West,270,1.1,0.0,99,0.24,CLR,,0.31,WeatherDisplay:10.37,2013-07-03 04:53:00,
2013-07-03 00:58:00,67.6,67.3,30.07,North,0,2.3,2.3,99,0.24,CLR,,0.31,WeatherDisplay:10.37,2013-07-03 04:58:00,
2013-07-03 01:03:00,67.6,67.3,30.07,North,0,2.3,0.0,99,0.31,CLR,,0.31,WeatherDisplay:10.37,2013-07-03 05:03:00,
2013-07-03 01:07:00,67.6,67.3,30.07,NE,45,0.0,0.0,99,0.31,CLR,,0.31,WeatherDisplay:10.37,2013-07-03 05:07:00,
2013-07-03 01:08:00,67.6,67.3,30.07,NE,45,0.0,0.0,99,0.31,CLR,,0.31,WeatherDisplay:10.37,2013-07-03 05:08:00,
2013-07-03 01:13:00,67.6,67.3,30.07,NE,45,0.0,0.0,99,0.24,CLR,,0.31,WeatherDisplay:10.37,2013-07-03 05:13:00,
2013-07-03 01:19:00,67.6,67.3,30.07,NW,315,1.1,0.0,99,0.07,CLR,,0.31,WeatherDisplay:10.37,2013-07-03 05:19:00,
2013-07-03 01:24:00,67.6,67.3,30.07,SW,225,4.6,4.6,99,0.01,CLR,,0.31,WeatherDisplay:10.37,2013-07-03 05:24:00,
2013-07-03 01:29:00,67.6,67.3,30.06,SW,225,0.0,0.0,99,0.00,CLR,,0.31,WeatherDisplay:10.37,2013-07-03 05:29:00,
2013-07-03 01:34:00,67.8,67.5,30.06,NNE,22,0.0,0.0,99,0.00,CLR,,0.31,WeatherDisplay:10.37,2013-07-03 05:34:00,
2013-07-03 01:40:00,67.6,67.3,30.06,NNE,22,0.0,0.0,99,0.00,CLR,,0.31,WeatherDisplay:10.37,2013-07-03 05:40:00,
2013-07-03 01:45:00,67.6,67.3,30.07,NE,45,0.0,0.0,99,0.00,CLR,,0.31,WeatherDisplay:10.37,2013-07-03 05:45:00,
2013-07-03 01:50:00,67.6,67.3,30.07,West,270,0.0,0.0,99,0.00,CLR,,0.31,WeatherDisplay:10.37,2013-07-03 05:50:00,
2013-07-03 01:56:00,67.8,67.5,30.07,West,270,0.0,0.0,99,0.00,CLR,,0.31,WeatherDisplay:10.37,2013-07-03 05:56:00,
2013-07-03 01:58:00,67.8,67.5,30.08,NNE,22,0.0,0.0,99,0.01,RA,,0.32,WeatherDisplay:10.37,2013-07-03 05:58:00,
2013-07-03 01:59:00,67.8,67.5,30.07,NNE,22,0.0,0.0,99,0.01,RA,,0.32,WeatherDisplay:10.37,2013-07-03 05:59:00,
2013-07-03 02:02:00,67.8,67.5,30.08,North,0,0.0,0.0,99,0.01,RA,,0.32,WeatherDisplay:10.37,2013-07-03 06:02:00,
2013-07-03 02:07:00,67.8,67.5,30.07,North,0,0.0,0.0,99,0.01,RA,,0.32,WeatherDisplay:10.37,2013-07-03 06:07:00,
2013-07-03 02:12:00,68.0,67.7,30.07,NE,45,1.1,0.0,99,0.01,CLR,,0.32,WeatherDisplay:10.37,2013-07-03 06:12:00,
2013-07-03 02:13:00,68.0,67.7,30.07,NE,45,1.1,0.0,99,0.01,CLR,,0.32,WeatherDisplay:10.37,2013-07-03 06:13:00,
2013-07-03 02:17:00,68.2,67.9,30.07,North,0,0.0,0.0,99,0.01,CLR,,0.32,WeatherDisplay:10.37,2013-07-03 06:17:00,
2013-07-03 02:18:00,68.2,67.9,30.07,North,0,0.0,0.0,99,0.01,CLR,,0.32,WeatherDisplay:10.37,2013-07-03 06:18:00,
2013-07-03 02:22:00,68.2,67.9,30.07,North,0,0.0,0.0,99,0.01,CLR,,0.32,WeatherDisplay:10.37,2013-07-03 06:22:00,
2013-07-03 02:25:00,68.2,67.9,30.07,North,0,0.0,0.0,99,0.01,CLR,,0.32,WeatherDisplay:10.37,2013-07-03 06:25:00,
2013-07-03 02:26:00,68.2,67.9,30.07,North,0,0.0,0.0,99,0.01,CLR,,0.32,WeatherDisplay:10.37,2013-07-03 06:26:00,
2013-07-03 02:32:00,68.2,67.9,30.06,NW,315,4.4,4.4,99,0.01,CLR,,0.32,WeatherDisplay:10.37,2013-07-03 06:32:00,
2013-07-03 02:37:00,68.4,68.1,30.06,West,270,0.0,0.0,99,0.01,CLR,,0.32,WeatherDisplay:10.37,2013-07-03 06:37:00,
2013-07-03 02:42:00,68.4,68.1,30.06,North,0,0.0,0.0,99,0.01,CLR,,0.32,WeatherDisplay:10.37,2013-07-03 06:42:00,
2013-07-03 02:45:00,68.4,68.1,30.07,NW,315,0.0,0.0,99,0.01,CLR,,0.32,WeatherDisplay:10.37,2013-07-03 06:45:00,
2013-07-03 02:50:00,68.5,68.2,30.06,NW,315,0.0,0.0,99,0.01,CLR,,0.32,WeatherDisplay:10.37,2013-07-03 06:50:00,
2013-07-03 02:55:00,68.5,68.2,30.06,North,0,1.1,0.0,99,0.01,CLR,,0.32,WeatherDisplay:10.37,2013-07-03 06:55:00,
2013-07-03 03:00:00,68.7,68.4,30.06,North,0,1.1,0.0,99,0.00,CLR,,0.32,WeatherDisplay:10.37,2013-07-03 07:00:00,
2013-07-03 03:05:00,68.7,68.4,30.06,NW,315,1.1,0.0,99,0.00,CLR,,0.32,WeatherDisplay:10.37,2013-07-03 07:05:00,
2013-07-03 03:10:00,68.7,68.4,30.06,North,0,0.0,0.0,99,0.00,CLR,,0.32,WeatherDisplay:10.37,2013-07-03 07:10:00,
2013-07-03 03:16:00,68.7,68.4,30.06,North,0,0.0,0.0,99,0.00,CLR,,0.32,WeatherDisplay:10.37,2013-07-03 07:16:00,
2013-07-03 03:17:00,68.7,68.4,30.06,North,0,0.0,0.0,99,0.00,CLR,,0.32,WeatherDisplay:10.37,2013-07-03 07:17:00,
2013-07-03 03:22:00,68.9,68.6,30.06,North,0,0.0,0.0,99,0.00,CLR,,0.32,WeatherDisplay:10.37,2013-07-03 07:22:00,
2013-07-03 03:28:00,68.9,68.6,30.06,North,0,0.0,0.0,99,0.00,CLR,,0.32,WeatherDisplay:10.37,2013-07-03 07:28:00,
2013-07-03 03:33:00,68.9,68.6,30.06,North,0,0.0,0.0,99,0.00,CLR,,0.32,WeatherDisplay:10.37,2013-07-03 07:33:00,
2013-07-03 03:38:00,68.9,68.6,30.06,North,0,0.0,0.0,99,0.00,CLR,,0.32,WeatherDisplay:10.37,2013-07-03 07:38:00,
2013-07-03 03:44:00,68.9,68.6,30.06,North,0,0.0,0.0,99,0.00,CLR,,0.32,WeatherDisplay:10.37,2013-07-03 07:44:00,
2013-07-03 03:49:00,68.9,68.6,30.06,North,0,0.0,0.0,99,0.00,CLR,,0.32,WeatherDisplay:10.37,2013-07-03 07:49:00,
2013-07-03 03:50:00,68.9,68.6,30.06,North,0,0.0,0.0,99,0.00,CLR,,0.32,WeatherDisplay:10.37,2013-07-03 07:50:00,
2013-07-03 03:55:00,68.9,68.6,30.06,North,0,0.0,0.0,99,0.00,CLR,,0.32,WeatherDisplay:10.37,2013-07-03 07:55:00,
2013-07-03 04:01:00,68.9,68.6,30.06,North,0,0.0,0.0,99,0.00,CLR,,0.32,WeatherDisplay:10.37,2013-07-03 08:01:00,
2013-07-03 04:06:00,68.9,68.6,30.06,North,0,0.0,0.0,99,0.00,CLR,,0.32,WeatherDisplay:10.37,2013-07-03 08:06:00,
2013-07-03 04:09:00,68.9,68.6,30.06,North,0,0.0,0.0,99,0.00,CLR,,0.32,WeatherDisplay:10.37,2013-07-03 08:09:00,
2013-07-03 04:14:00,68.9,68.6,30.06,North,0,0.0,0.0,99,0.00,CLR,,0.32,WeatherDisplay:10.37,2013-07-03 08:14:00,
2013-07-03 04:18:00,68.9,68.6,30.07,West,270,0.0,0.0,99,0.00,CLR,,0.32,WeatherDisplay:10.37,2013-07-03 08:18:00,
2013-07-03 04:23:00,68.9,68.6,30.06,North,0,0.0,0.0,99,0.00,CLR,,0.32,WeatherDisplay:10.37,2013-07-03 08:23:00,
2013-07-03 04:28:00,68.9,68.6,30.07,North,0,0.0,0.0,99,0.00,CLR,,0.32,WeatherDisplay:10.37,2013-07-03 08:28:00,
2013-07-03 04:34:00,68.9,68.6,30.07,North,0,0.0,0.0,99,0.00,CLR,,0.32,WeatherDisplay:10.37,2013-07-03 08:34:00,
2013-07-03 04:39:00,69.1,68.8,30.07,North,0,0.0,0.0,99,0.00,CLR,,0.32,WeatherDisplay:10.37,2013-07-03 08:39:00,
2013-07-03 04:43:00,69.1,68.8,30.07,North,0,0.0,0.0,99,0.00,CLR,,0.32,WeatherDisplay:10.37,2013-07-03 08:43:00,
2013-07-03 04:45:00,69.1,68.8,30.07,North,0,0.0,0.0,99,0.00,CLR,,0.32,WeatherDisplay:10.37,2013-07-03 08:45:00,
2013-07-03 04:50:00,69.1,68.8,30.07,NE,45,0.0,0.0,99,0.00,CLR,,0.32,WeatherDisplay:10.37,2013-07-03 08:50:00,
2013-07-03 04:54:00,69.1,68.8,30.07,NE,45,0.0,0.0,99,0.00,CLR,,0.32,WeatherDisplay:10.37,2013-07-03 08:54:00,
2013-07-03 04:56:00,69.1,68.8,30.07,NE,45,0.0,0.0,99,0.00,CLR,,0.32,WeatherDisplay:10.37,2013-07-03 08:56:00,
2013-07-03 05:01:00,69.1,68.8,30.07,NE,45,0.0,0.0,99,0.00,CLR,,0.32,WeatherDisplay:10.37,2013-07-03 09:01:00,
2013-07-03 05:06:00,68.9,68.6,30.08,NE,45,0.0,0.0,99,0.00,CLR,,0.32,WeatherDisplay:10.37,2013-07-03 09:06:00,
2013-07-03 05:12:00,69.1,68.8,30.08,NE,45,0.0,0.0,99,0.00,CLR,,0.32,WeatherDisplay:10.37,2013-07-03 09:12:00,
2013-07-03 05:17:00,69.1,68.8,30.08,NE,45,0.0,0.0,99,0.00,CLR,,0.32,WeatherDisplay:10.37,2013-07-03 09:17:00,
2013-07-03 05:22:00,69.1,68.8,30.08,North,0,0.0,0.0,99,0.00,CLR,,0.32,WeatherDisplay:10.37,2013-07-03 09:22:00,
2013-07-03 05:27:00,69.1,68.8,30.08,SW,225,0.0,0.0,99,0.00,CLR,,0.32,WeatherDisplay:10.37,2013-07-03 09:27:00,
2013-07-03 05:32:00,69.1,68.8,30.08,North,0,0.0,0.0,99,0.00,CLR,,0.32,WeatherDisplay:10.37,2013-07-03 09:32:00,
2013-07-03 05:37:00,69.1,68.8,30.08,North,0,0.0,0.0,99,0.00,CLR,,0.32,WeatherDisplay:10.37,2013-07-03 09:37:00,
2013-07-03 05:41:00,69.1,68.8,30.08,North,0,0.0,0.0,99,0.00,CLR,,0.32,WeatherDisplay:10.37,2013-07-03 09:41:00,
2013-07-03 05:47:00,69.1,68.8,30.08,West,270,0.0,0.0,99,0.00,CLR,,0.32,WeatherDisplay:10.37,2013-07-03 09:47:00,
2013-07-03 05:49:00,69.1,68.8,30.08,West,270,0.0,0.0,99,0.00,CLR,,0.32,WeatherDisplay:10.37,2013-07-03 09:49:00,
2013-07-03 05:50:00,69.1,68.8,30.09,North,0,0.0,0.0,99,0.00,CLR,,0.32,WeatherDisplay:10.37,2013-07-03 09:50:00,
2013-07-03 05:56:00,69.1,68.8,30.09,North,0,0.0,0.0,99,0.00,CLR,,0.32,WeatherDisplay:10.37,2013-07-03 09:56:00,
2013-07-03 06:01:00,69.3,69.0,30.09,North,0,0.0,0.0,99,0.00,CLR,,0.32,WeatherDisplay:10.37,2013-07-03 10:01:00,
2013-07-03 06:04:00,69.3,69.0,30.09,North,0,0.0,0.0,99,0.00,CLR,,0.32,WeatherDisplay:10.37,2013-07-03 10:04:00,
2013-07-03 06:06:00,69.3,69.0,30.08,North,0,0.0,0.0,99,0.00,CLR,,0.32,WeatherDisplay:10.37,2013-07-03 10:06:00,
2013-07-03 06:11:00,69.3,69.0,30.09,North,0,0.0,0.0,99,0.00,CLR,,0.32,WeatherDisplay:10.37,2013-07-03 10:11:00,
2013-07-03 06:17:00,69.3,69.0,30.08,North,0,0.0,0.0,99,0.00,CLR,,0.32,WeatherDisplay:10.37,2013-07-03 10:17:00,
2013-07-03 06:23:00,69.3,69.0,30.08,North,0,0.0,0.0,99,0.00,CLR,,0.32,WeatherDisplay:10.37,2013-07-03 10:23:00,
2013-07-03 06:28:00,69.3,69.0,30.08,West,270,0.0,0.0,99,0.00,CLR,,0.32,WeatherDisplay:10.37,2013-07-03 10:28:00,
2013-07-03 06:31:00,69.3,69.0,30.08,West,270,0.0,0.0,99,0.00,CLR,,0.32,WeatherDisplay:10.37,2013-07-03 10:31:00,
2013-07-03 06:36:00,69.3,69.0,30.08,NW,315,0.0,0.0,99,0.00,CLR,,0.32,WeatherDisplay:10.37,2013-07-03 10:36:00,
2013-07-03 06:42:00,69.3,69.0,30.08,North,0,0.0,0.0,99,0.00,CLR,,0.32,WeatherDisplay:10.37,2013-07-03 10:42:00,
2013-07-03 06:47:00,69.3,69.0,30.08,North,0,0.0,0.0,99,0.00,CLR,,0.32,WeatherDisplay:10.37,2013-07-03 10:47:00,
2013-07-03 06:50:00,69.3,69.0,30.08,North,0,0.0,0.0,99,0.00,CLR,,0.32,WeatherDisplay:10.37,2013-07-03 10:50:00,
2013-07-03 06:55:00,69.4,69.1,30.09,North,0,0.0,0.0,99,0.00,CLR,,0.32,WeatherDisplay:10.37,2013-07-03 10:55:00,
2013-07-03 06:57:00,69.4,69.1,30.09,North,0,0.0,0.0,99,0.00,CLR,,0.32,WeatherDisplay:10.37,2013-07-03 10:57:00,
2013-07-03 07:02:00,69.4,69.1,30.09,North,0,0.0,0.0,99,0.00,CLR,,0.32,WeatherDisplay:10.37,2013-07-03 11:02:00,
2013-07-03 07:08:00,69.4,69.1,30.09,North,0,0.0,0.0,99,0.00,CLR,,0.32,WeatherDisplay:10.37,2013-07-03 11:08:00,
2013-07-03 07:09:00,69.4,69.1,30.09,North,0,0.0,0.0,99,0.00,CLR,,0.32,WeatherDisplay:10.37,2013-07-03 11:09:00,
2013-07-03 07:14:00,69.4,69.1,30.10,North,0,0.0,0.0,99,0.00,CLR,,0.32,WeatherDisplay:10.37,2013-07-03 11:14:00,
2013-07-03 07:19:00,69.4,69.1,30.10,North,0,0.0,0.0,99,0.00,CLR,,0.32,WeatherDisplay:10.37,2013-07-03 11:19:00,
2013-07-03 07:24:00,69.6,69.3,30.09,North,0,0.0,0.0,99,0.00,CLR,,0.32,WeatherDisplay:10.37,2013-07-03 11:24:00,
2013-07-03 07:25:00,69.6,69.3,30.10,North,0,0.0,0.0,99,0.00,CLR,,0.32,WeatherDisplay:10.37,2013-07-03 11:25:00,
2013-07-03 07:30:00,69.6,69.3,30.10,North,0,0.0,0.0,99,0.00,CLR,,0.32,WeatherDisplay:10.37,2013-07-03 11:30:00,
2013-07-03 07:35:00,69.6,69.3,30.10,North,0,0.0,0.0,99,0.00,CLR,,0.32,WeatherDisplay:10.37,2013-07-03 11:35:00,
2013-07-03 07:41:00,69.6,69.3,30.10,North,0,0.0,0.0,99,0.00,CLR,,0.32,WeatherDisplay:10.37,2013-07-03 11:41:00,
2013-07-03 07:45:00,69.6,69.3,30.10,North,0,0.0,0.0,99,0.00,CLR,,0.32,WeatherDisplay:10.37,2013-07-03 11:45:00,
2013-07-03 07:51:00,69.6,69.3,30.10,North,0,0.0,0.0,99,0.00,CLR,,0.32,WeatherDisplay:10.37,2013-07-03 11:51:00,
2013-07-03 07:56:00,69.6,69.3,30.10,North,0,0.0,0.0,99,0.00,CLR,,0.32,WeatherDisplay:10.37,2013-07-03 11:56:00,
2013-07-03 08:00:00,69.6,69.3,30.10,North,0,0.0,0.0,99,0.00,CLR,,0.32,WeatherDisplay:10.37,2013-07-03 12:00:00,
2013-07-03 08:02:00,69.6,69.3,30.11,North,0,0.0,0.0,99,0.00,CLR,,0.32,WeatherDisplay:10.37,2013-07-03 12:02:00,
2013-07-03 08:08:00,69.8,69.2,30.11,North,0,0.0,0.0,98,0.00,CLR,,0.32,WeatherDisplay:10.37,2013-07-03 12:08:00,
2013-07-03 08:12:00,69.8,69.2,30.11,North,0,0.0,0.0,98,0.00,CLR,,0.32,WeatherDisplay:10.37,2013-07-03 12:12:00,
2013-07-03 08:16:00,69.8,69.2,30.11,North,0,0.0,0.0,98,0.00,CLR,,0.32,WeatherDisplay:10.37,2013-07-03 12:16:00,
2013-07-03 08:21:00,70.0,69.4,30.11,North,0,0.0,0.0,98,0.00,CLR,,0.32,WeatherDisplay:10.37,2013-07-03 12:21:00,
2013-07-03 08:27:00,70.2,69.6,30.11,West,270,0.0,0.0,98,0.00,CLR,,0.32,WeatherDisplay:10.37,2013-07-03 12:27:00,
2013-07-03 08:32:00,70.3,69.7,30.12,North,0,0.0,0.0,98,0.00,CLR,,0.32,WeatherDisplay:10.37,2013-07-03 12:32:00,
2013-07-03 08:37:00,70.5,69.9,30.12,North,0,0.0,0.0,98,0.00,CLR,,0.32,WeatherDisplay:10.37,2013-07-03 12:37:00,
2013-07-03 08:43:00,70.7,70.1,30.12,North,0,0.0,0.0,98,0.00,CLR,,0.32,WeatherDisplay:10.37,2013-07-03 12:43:00,
2013-07-03 08:46:00,70.7,70.1,30.12,North,0,0.0,0.0,98,0.00,CLR,,0.32,WeatherDisplay:10.37,2013-07-03 12:46:00,
2013-07-03 08:51:00,70.9,70.3,30.12,South,180,2.3,0.0,98,0.00,CLR,,0.32,WeatherDisplay:10.37,2013-07-03 12:51:00,
2013-07-03 08:57:00,70.9,70.3,30.13,SW,225,0.0,0.0,98,0.00,CLR,,0.32,WeatherDisplay:10.37,2013-07-03 12:57:00,
2013-07-03 09:03:00,70.9,70.3,30.13,SW,225,0.0,0.0,98,0.00,CLR,,0.32,WeatherDisplay:10.37,2013-07-03 13:03:00,
2013-07-03 09:08:00,70.9,70.3,30.13,North,0,0.0,0.0,98,0.00,CLR,,0.32,WeatherDisplay:10.37,2013-07-03 13:08:00,
2013-07-03 09:13:00,70.7,70.1,30.14,NE,45,0.0,0.0,98,0.00,CLR,,0.32,WeatherDisplay:10.37,2013-07-03 13:13:00,
2013-07-03 09:18:00,70.7,70.1,30.13,NE,45,0.0,0.0,98,0.00,CLR,,0.32,WeatherDisplay:10.37,2013-07-03 13:18:00,
2013-07-03 09:23:00,70.5,69.9,30.13,SW,225,0.0,0.0,98,0.00,CLR,,0.33,WeatherDisplay:10.37,2013-07-03 13:23:00,
2013-07-03 09:25:00,70.5,69.9,30.14,SW,225,0.0,0.0,98,0.01,RA,,0.33,WeatherDisplay:10.37,2013-07-03 13:25:00,
2013-07-03 09:30:00,70.5,69.9,30.14,West,270,0.0,0.0,98,0.04,RA,,0.37,WeatherDisplay:10.37,2013-07-03 13:30:00,
2013-07-03 09:35:00,70.3,69.7,30.14,NE,45,0.0,0.0,98,0.09,RA,,0.41,WeatherDisplay:10.37,2013-07-03 13:35:00,
2013-07-03 09:39:00,70.3,69.7,30.14,North,0,2.7,0.0,98,0.14,RA,,0.47,WeatherDisplay:10.37,2013-07-03 13:39:00,
2013-07-03 09:44:00,70.2,69.6,30.14,North,0,2.3,0.0,98,0.20,RA,,0.52,WeatherDisplay:10.37,2013-07-03 13:44:00,
2013-07-03 09:49:00,70.0,69.4,30.14,West,270,0.0,0.0,98,0.22,RA,,0.56,WeatherDisplay:10.37,2013-07-03 13:49:00,
2013-07-03 09:54:00,69.8,69.2,30.14,West,270,0.0,0.0,98,0.28,RA,,0.60,WeatherDisplay:10.37,2013-07-03 13:54:00,
2013-07-03 09:59:00,69.8,69.2,30.14,West,270,0.0,0.0,98,0.32,RA,,0.64,WeatherDisplay:10.37,2013-07-03 13:59:00,
2013-07-03 10:04:00,69.8,69.2,30.14,WSW,252,0.0,1.0,98,0.01,RA,,0.71,WeatherDisplay:10.37,2013-07-03 14:04:00,
2013-07-03 10:06:00,69.8,69.2,30.14,East,90,1.1,0.0,98,0.40,RA,,0.72,WeatherDisplay:10.37,2013-07-03 14:06:00,
2013-07-03 10:10:00,69.6,69.3,30.14,NW,315,0.0,0.0,99,0.45,RA,,0.78,WeatherDisplay:10.37,2013-07-03 14:10:00,
2013-07-03 10:15:00,69.6,69.3,30.14,NE,45,2.3,2.3,99,0.48,RA,,0.80,WeatherDisplay:10.37,2013-07-03 14:15:00,
2013-07-03 10:20:00,69.6,69.3,30.14,SE,135,2.3,0.0,99,0.48,RA,,0.80,WeatherDisplay:10.37,2013-07-03 14:20:00,
2013-07-03 10:25:00,69.6,69.3,30.14,North,0,0.0,0.0,99,0.48,RA,,0.81,WeatherDisplay:10.37,2013-07-03 14:25:00,
2013-07-03 10:31:00,69.6,69.3,30.14,East,90,0.0,0.0,99,0.44,RA,,0.81,WeatherDisplay:10.37,2013-07-03 14:31:00,
2013-07-03 10:32:00,69.6,69.3,30.14,East,90,0.0,0.0,99,0.44,RA,,0.81,WeatherDisplay:10.37,2013-07-03 14:32:00,
2013-07-03 10:37:00,69.6,69.3,30.14,NW,315,0.0,0.0,99,0.39,CLR,,0.81,WeatherDisplay:10.37,2013-07-03 14:37:00,
2013-07-03 10:38:00,69.6,69.3,30.14,NW,315,0.0,0.0,99,0.37,CLR,,0.81,WeatherDisplay:10.37,2013-07-03 14:38:00,
2013-07-03 10:41:00,69.8,69.2,30.15,NW,315,0.0,0.0,98,0.32,CLR,,0.81,WeatherDisplay:10.37,2013-07-03 14:41:00,
2013-07-03 10:46:00,70.0,69.4,30.15,SW,225,0.0,0.0,98,0.28,CLR,,0.81,WeatherDisplay:10.37,2013-07-03 14:46:00,
2013-07-03 10:51:00,70.0,69.4,30.14,NNE,22,0.0,0.0,98,0.24,CLR,,0.81,WeatherDisplay:10.37,2013-07-03 14:51:00,
2013-07-03 10:56:00,70.0,69.4,30.15,SE,135,0.0,0.0,98,0.20,CLR,,0.81,WeatherDisplay:10.37,2013-07-03 14:56:00,
2013-07-03 10:59:00,70.0,69.4,30.15,North,0,0.0,0.0,98,0.18,CLR,,0.81,WeatherDisplay:10.37,2013-07-03 14:59:00,
2013-07-03 11:03:00,70.0,69.4,30.15,NW,315,2.3,0.0,98,0.12,CLR,,0.81,WeatherDisplay:10.37,2013-07-03 15:03:00,
2013-07-03 11:09:00,69.8,69.2,30.15,North,0,0.0,0.0,98,0.06,CLR,,0.81,WeatherDisplay:10.37,2013-07-03 15:09:00,
2013-07-03 11:14:00,69.6,69.3,30.15,North,0,0.0,0.0,99,0.01,CLR,,0.81,WeatherDisplay:10.37,2013-07-03 15:14:00,
2013-07-03 11:15:00,69.6,69.3,30.15,North,0,0.0,0.0,99,0.01,CLR,,0.81,WeatherDisplay:10.37,2013-07-03 15:15:00,
2013-07-03 11:20:00,69.4,69.1,30.15,North,0,0.0,0.0,99,0.01,CLR,,0.81,WeatherDisplay:10.37,2013-07-03 15:20:00,
2013-07-03 11:25:00,69.4,69.1,30.15,North,0,0.0,0.0,99,0.00,CLR,,0.81,WeatherDisplay:10.37,2013-07-03 15:25:00,
2013-07-03 11:28:00,69.4,69.1,30.15,North,0,0.0,0.0,99,0.00,CLR,,0.81,WeatherDisplay:10.37,2013-07-03 15:28:00,
2013-07-03 11:33:00,69.4,69.1,30.14,North,0,0.0,0.0,99,0.00,CLR,,0.81,WeatherDisplay:10.37,2013-07-03 15:33:00,
2013-07-03 11:38:00,69.3,69.0,30.15,West,270,0.0,0.0,99,0.00,CLR,,0.81,WeatherDisplay:10.37,2013-07-03 15:38:00,
2013-07-03 11:40:00,69.4,69.1,30.15,West,270,2.3,0.0,99,0.00,CLR,,0.81,WeatherDisplay:10.37,2013-07-03 15:40:00,
2013-07-03 11:45:00,69.1,68.8,30.15,North,0,0.0,0.0,99,0.00,CLR,,0.81,WeatherDisplay:10.37,2013-07-03 15:45:00,
2013-07-03 11:50:00,69.1,68.8,30.14,North,0,0.0,0.0,99,0.00,CLR,,0.81,WeatherDisplay:10.37,2013-07-03 15:50:00,
2013-07-03 11:52:00,69.1,68.8,30.14,North,0,0.0,0.0,99,0.00,CLR,,0.81,WeatherDisplay:10.37,2013-07-03 15:52:00,
2013-07-03 11:57:00,69.1,68.8,30.15,West,270,0.0,0.0,99,0.00,CLR,,0.81,WeatherDisplay:10.37,2013-07-03 15:57:00,
2013-07-03 12:02:00,69.1,68.8,30.15,North,0,0.0,0.0,99,0.00,CLR,,0.81,WeatherDisplay:10.37,2013-07-03 16:02:00,
2013-07-03 12:08:00,69.1,68.8,30.15,West,270,1.1,0.0,99,0.00,CLR,,0.81,WeatherDisplay:10.37,2013-07-03 16:08:00,
2013-07-03 12:13:00,69.1,68.8,30.15,North,0,0.0,0.0,99,0.00,CLR,,0.81,WeatherDisplay:10.37,2013-07-03 16:13:00,
2013-07-03 12:18:00,69.1,68.8,30.15,North,0,0.0,0.0,99,0.01,RA,,0.83,WeatherDisplay:10.37,2013-07-03 16:18:00,
2013-07-03 12:23:00,69.1,68.8,30.15,North,0,0.0,0.0,99,0.01,RA,,0.83,WeatherDisplay:10.37,2013-07-03 16:23:00,
2013-07-03 12:28:00,69.1,68.8,30.14,North,0,0.0,0.0,99,0.01,CLR,,0.83,WeatherDisplay:10.37,2013-07-03 16:28:00,
2013-07-03 12:34:00,69.1,68.8,30.14,North,0,2.3,0.0,99,0.01,CLR,,0.83,WeatherDisplay:10.37,2013-07-03 16:34:00,
2013-07-03 12:39:00,69.1,68.8,30.14,North,0,0.0,0.0,99,0.01,CLR,,0.83,WeatherDisplay:10.37,2013-07-03 16:39:00,
2013-07-03 12:44:00,69.1,68.8,30.15,NE,45,0.0,0.0,99,0.02,RA,,0.84,WeatherDisplay:10.37,2013-07-03 16:44:00,
2013-07-03 12:50:00,69.1,68.8,30.14,North,0,0.0,0.0,99,0.02,RA,,0.84,WeatherDisplay:10.37,2013-07-03 16:50:00,
2013-07-03 12:55:00,69.3,69.0,30.14,West,270,1.1,0.0,99,0.02,CLR,,0.84,WeatherDisplay:10.37,2013-07-03 16:55:00,
2013-07-03 13:01:00,69.4,69.1,30.14,North,0,0.0,0.0,99,0.02,CLR,,0.84,WeatherDisplay:10.37,2013-07-03 17:01:00,
2013-07-03 13:06:00,69.8,69.2,30.14,NE,45,1.1,1.3,98,0.02,CLR,,0.84,WeatherDisplay:10.37,2013-07-03 17:06:00,
2013-07-03 13:11:00,70.0,69.4,30.13,North,0,0.0,0.0,98,0.02,CLR,,0.84,WeatherDisplay:10.37,2013-07-03 17:11:00,
2013-07-03 13:16:00,70.2,69.6,30.14,North,0,1.1,0.0,98,0.01,CLR,,0.84,WeatherDisplay:10.37,2013-07-03 17:16:00,
2013-07-03 13:21:00,70.3,69.7,30.13,North,0,1.1,0.0,98,0.01,CLR,,0.84,WeatherDisplay:10.37,2013-07-03 17:21:00,
2013-07-03 13:26:00,70.5,69.9,30.13,SW,225,0.0,0.0,98,0.01,CLR,,0.84,WeatherDisplay:10.37,2013-07-03 17:26:00,
2013-07-03 13:31:00,70.5,69.9,30.13,North,0,0.0,0.0,98,0.01,CLR,,0.84,WeatherDisplay:10.37,2013-07-03 17:31:00,
2013-07-03 13:36:00,70.5,69.9,30.13,North,0,0.0,0.0,98,0.01,CLR,,0.84,WeatherDisplay:10.37,2013-07-03 17:36:00,
2013-07-03 13:43:00,70.5,69.9,30.13,NW,315,0.0,0.0,98,0.00,CLR,,0.84,WeatherDisplay:10.37,2013-07-03 17:43:00,
2013-07-03 13:48:00,70.5,69.9,30.14,West,270,0.0,0.0,98,0.00,CLR,,0.84,WeatherDisplay:10.37,2013-07-03 17:48:00,
2013-07-03 13:53:00,70.7,70.1,30.13,NE,45,0.0,0.0,98,0.00,CLR,,0.84,WeatherDisplay:10.37,2013-07-03 17:53:00,
2013-07-03 13:58:00,70.7,70.1,30.13,SW,225,0.0,0.0,98,0.00,CLR,,0.84,WeatherDisplay:10.37,2013-07-03 17:58:00,
2013-07-03 14:03:00,70.7,70.1,30.14,East,90,0.0,0.0,98,0.00,CLR,,0.84,WeatherDisplay:10.37,2013-07-03 18:03:00,
2013-07-03 14:08:00,70.9,70.3,30.14,East,90,0.0,0.0,98,0.00,CLR,,0.84,WeatherDisplay:10.37,2013-07-03 18:08:00,
2013-07-03 14:14:00,71.1,70.5,30.14,East,90,0.0,0.0,98,0.00,CLR,,0.84,WeatherDisplay:10.37,2013-07-03 18:14:00,
2013-07-03 14:19:00,71.1,70.5,30.14,SE,135,0.0,0.0,98,0.00,CLR,,0.84,WeatherDisplay:10.37,2013-07-03 18:19:00,
2013-07-03 14:24:00,71.2,70.6,30.14,SE,135,0.0,0.0,98,0.00,CLR,,0.84,WeatherDisplay:10.37,2013-07-03 18:24:00,
2013-07-03 14:29:00,71.1,70.5,30.13,NE,45,0.0,0.0,98,0.00,CLR,,0.84,WeatherDisplay:10.37,2013-07-03 18:29:00,
2013-07-03 14:34:00,71.2,70.6,30.12,North,0,0.0,0.0,98,0.00,CLR,,0.84,WeatherDisplay:10.37,2013-07-03 18:34:00,
2013-07-03 14:39:00,71.1,70.5,30.11,North,0,0.0,0.0,98,0.01,RA,,0.85,WeatherDisplay:10.37,2013-07-03 18:39:00,
2013-07-03 14:44:00,71.2,70.6,30.11,North,0,2.3,2.3,98,0.01,RA,,0.85,WeatherDisplay:10.37,2013-07-03 18:44:00,
2013-07-03 14:49:00,71.2,70.6,30.11,NW,315,2.3,0.0,98,0.02,RA,,0.86,WeatherDisplay:10.37,2013-07-03 18:49:00,
2013-07-03 14:54:00,71.2,70.6,30.12,West,270,6.9,6.9,98,0.02,RA,,0.86,WeatherDisplay:10.37,2013-07-03 18:54:00,
2013-07-03 14:59:00,71.5,70.9,30.13,West,279,0.0,2.0,98,0.00,RA,,0.87,WeatherDisplay:10.37,2013-07-03 18:59:00,
2013-07-03 15:04:00,71.6,70.7,30.13,NNE,18,0.0,1.0,97,0.00,RA,,0.87,WeatherDisplay:10.37,2013-07-03 19:04:00,
2013-07-03 15:09:00,71.8,70.9,30.13,North,0,0.0,0.0,97,0.04,CLR,,0.87,WeatherDisplay:10.37,2013-07-03 19:09:00,
2013-07-03 15:15:00,72.0,71.1,30.12,North,0,2.3,0.0,97,0.04,CLR,,0.87,WeatherDisplay:10.37,2013-07-03 19:15:00,
2013-07-03 15:20:00,72.1,71.2,30.12,North,0,0.0,0.0,97,0.04,CLR,,0.87,WeatherDisplay:10.37,2013-07-03 19:20:00,
2013-07-03 15:25:00,72.3,71.4,30.12,North,0,0.0,0.0,97,0.04,CLR,,0.87,WeatherDisplay:10.37,2013-07-03 19:25:00,
2013-07-03 15:30:00,72.5,71.6,30.13,West,270,1.1,0.0,97,0.04,CLR,,0.87,WeatherDisplay:10.37,2013-07-03 19:30:00,
2013-07-03 15:35:00,72.5,71.6,30.13,North,0,1.1,0.0,97,0.04,CLR,,0.87,WeatherDisplay:10.37,2013-07-03 19:35:00,
2013-07-03 15:41:00,72.5,71.6,30.13,West,270,2.3,0.0,97,0.02,CLR,,0.87,WeatherDisplay:10.37,2013-07-03 19:41:00,
2013-07-03 15:46:00,72.5,71.6,30.13,NE,45,0.0,0.0,97,0.02,CLR,,0.87,WeatherDisplay:10.37,2013-07-03 19:46:00,
2013-07-03 15:51:00,72.7,71.8,30.13,SE,135,0.0,0.0,97,0.01,CLR,,0.87,WeatherDisplay:10.37,2013-07-03 19:51:00,
2013-07-03 15:57:00,72.9,72.0,30.13,North,0,0.0,0.0,97,0.00,CLR,,0.87,WeatherDisplay:10.37,2013-07-03 19:57:00,
2013-07-03 16:02:00,72.9,72.0,30.13,West,270,0.0,0.0,97,0.00,CLR,,0.87,WeatherDisplay:10.37,2013-07-03 20:02:00,
2013-07-03 16:07:00,73.0,72.1,30.13,North,0,0.0,0.0,97,0.00,CLR,,0.87,WeatherDisplay:10.37,2013-07-03 20:07:00,
2013-07-03 16:13:00,73.0,72.1,30.13,West,270,2.3,0.0,97,0.00,CLR,,0.87,WeatherDisplay:10.37,2013-07-03 20:13:00,
2013-07-03 16:18:00,73.0,72.1,30.13,SW,225,0.0,0.0,97,0.01,RA,,0.89,WeatherDisplay:10.37,2013-07-03 20:18:00,
2013-07-03 16:23:00,72.9,72.0,30.12,West,270,2.3,0.0,97,0.01,RA,,0.89,WeatherDisplay:10.37,2013-07-03 20:23:00,
2013-07-03 16:28:00,73.0,72.1,30.12,NW,315,1.1,0.0,97,0.01,,,0.89,WeatherDisplay:10.37,2013-07-03 20:28:00,
2013-07-03 16:33:00,73.2,72.3,30.12,SW,225,1.1,0.0,97,0.01,CLR,,0.89,WeatherDisplay:10.37,2013-07-03 20:33:00,
2013-07-03 16:38:00,73.2,72.3,30.12,SW,225,1.1,0.0,97,0.01,CLR,,0.89,WeatherDisplay:10.37,2013-07-03 20:38:00,
2013-07-03 16:44:00,73.2,72.3,30.11,West,270,2.7,0.0,97,0.01,CLR,,0.89,WeatherDisplay:10.37,2013-07-03 20:44:00,
2013-07-03 16:49:00,73.2,72.3,30.12,SW,225,4.6,4.6,97,0.01,CLR,,0.89,WeatherDisplay:10.37,2013-07-03 20:49:00,
2013-07-03 16:54:00,73.0,72.1,30.11,North,0,0.0,0.0,97,0.01,CLR,,0.89,WeatherDisplay:10.37,2013-07-03 20:54:00,
2013-07-03 16:59:00,73.0,72.1,30.12,West,270,0.0,0.0,97,0.01,CLR,,0.89,WeatherDisplay:10.37,2013-07-03 20:59:00,
2013-07-03 17:04:00,73.2,72.3,30.12,North,0,2.3,0.0,97,0.01,CLR,,0.89,WeatherDisplay:10.37,2013-07-03 21:04:00,
2013-07-03 17:09:00,73.2,72.3,30.11,NE,45,1.1,0.0,97,0.01,CLR,,0.89,WeatherDisplay:10.37,2013-07-03 21:09:00,
2013-07-03 17:14:00,73.2,72.3,30.11,South,180,5.8,5.8,97,0.01,CLR,,0.89,WeatherDisplay:10.37,2013-07-03 21:14:00,
2013-07-03 17:20:00,73.2,72.3,30.11,South,181,2.0,7.0,97,0.00,CLR,,0.89,WeatherDisplay:10.37,2013-07-03 21:20:00,
2013-07-03 17:25:00,73.2,72.3,30.11,SW,225,7.0,7.0,97,0.00,CLR,,0.89,WeatherDisplay:10.37,2013-07-03 21:25:00,
2013-07-03 17:30:00,73.2,72.3,30.11,NE,45,5.8,0.0,97,0.00,CLR,,0.89,WeatherDisplay:10.37,2013-07-03 21:30:00,
2013-07-03 17:35:00,73.2,72.0,30.12,South,180,10.4,10.4,96,0.00,CLR,,0.89,WeatherDisplay:10.37,2013-07-03 21:35:00,
2013-07-03 17:40:00,72.7,70.5,30.12,South,180,10.4,10.4,93,0.00,CLR,,0.89,WeatherDisplay:10.37,2013-07-03 21:40:00,
2013-07-03 17:45:00,72.5,70.4,30.12,SW,225,4.6,0.0,93,0.00,CLR,,0.89,WeatherDisplay:10.37,2013-07-03 21:45:00,
2013-07-03 17:50:00,72.3,69.9,30.11,West,270,6.9,6.9,92,0.00,CLR,,0.89,WeatherDisplay:10.37,2013-07-03 21:50:00,
2013-07-03 17:55:00,72.3,69.9,30.12,North,0,0.0,0.0,92,0.00,CLR,,0.89,WeatherDisplay:10.37,2013-07-03 21:55:00,
2013-07-03 18:00:00,72.1,69.7,30.12,North,0,0.0,0.0,92,0.00,CLR,,0.89,WeatherDisplay:10.37,2013-07-03 22:00:00,
2013-07-03 18:06:00,72.0,69.5,30.12,North,0,0.0,0.0,92,0.00,CLR,,0.89,WeatherDisplay:10.37,2013-07-03 22:06:00,
2013-07-03 18:11:00,71.8,69.6,30.12,North,0,0.0,0.0,93,0.00,CLR,,0.89,WeatherDisplay:10.37,2013-07-03 22:11:00,
2013-07-03 18:17:00,71.8,69.6,30.13,SW,225,0.0,0.0,93,0.00,CLR,,0.89,WeatherDisplay:10.37,2013-07-03 22:17:00,
2013-07-03 18:22:00,71.6,69.5,30.13,SW,225,0.0,0.0,93,0.00,CLR,,0.89,WeatherDisplay:10.37,2013-07-03 22:22:00,
2013-07-03 18:27:00,71.6,69.5,30.13,South,180,6.9,6.9,93,0.00,CLR,,0.89,WeatherDisplay:10.37,2013-07-03 22:27:00,
2013-07-03 18:32:00,71.6,69.5,30.13,South,180,4.6,4.6,93,0.00,CLR,,0.89,WeatherDisplay:10.37,2013-07-03 22:32:00,
2013-07-03 18:37:00,71.6,69.5,30.12,South,180,1.1,1.3,93,0.00,CLR,,0.89,WeatherDisplay:10.37,2013-07-03 22:37:00,
2013-07-03 18:42:00,71.6,69.5,30.12,SE,135,1.1,1.3,93,0.00,CLR,,0.89,WeatherDisplay:10.37,2013-07-03 22:42:00,
2013-07-03 18:48:00,71.6,69.5,30.13,West,270,0.0,0.0,93,0.00,CLR,,0.89,WeatherDisplay:10.37,2013-07-03 22:48:00,
2013-07-03 18:53:00,71.6,69.5,30.13,SW,225,5.8,5.8,93,0.00,CLR,,0.89,WeatherDisplay:10.37,2013-07-03 22:53:00,
2013-07-03 18:58:00,71.6,69.2,30.13,South,180,4.6,4.6,92,0.00,CLR,,0.89,WeatherDisplay:10.37,2013-07-03 22:58:00,
2013-07-03 19:03:00,71.6,69.2,30.13,South,180,2.3,5.7,92,0.00,CLR,,0.89,WeatherDisplay:10.37,2013-07-03 23:03:00,
2013-07-03 19:09:00,71.6,69.2,30.13,West,270,0.0,0.0,92,0.00,CLR,,0.89,WeatherDisplay:10.37,2013-07-03 23:09:00,
2013-07-03 19:14:00,71.4,69.3,30.13,SW,225,1.1,2.7,93,0.00,CLR,,0.89,WeatherDisplay:10.37,2013-07-03 23:14:00,
2013-07-03 19:19:00,71.4,69.3,30.13,South,180,4.6,4.6,93,0.00,CLR,,0.89,WeatherDisplay:10.37,2013-07-03 23:19:00,
2013-07-03 19:24:00,71.2,69.1,30.13,SSW,211,1.0,8.0,93,0.00,CLR,,0.89,WeatherDisplay:10.37,2013-07-03 23:24:00,
2013-07-03 19:30:00,71.2,69.1,30.13,South,185,1.0,6.0,93,0.00,CLR,,0.89,WeatherDisplay:10.37,2013-07-03 23:30:00,
2013-07-03 19:35:00,71.1,68.9,30.13,South,180,4.6,4.6,93,0.00,CLR,,0.89,WeatherDisplay:10.37,2013-07-03 23:35:00,
2013-07-03 19:40:00,70.9,68.8,30.13,South,180,4.6,4.6,93,0.00,CLR,,0.89,WeatherDisplay:10.37,2013-07-03 23:40:00,
2013-07-03 19:45:00,70.9,68.8,30.13,SW,225,4.6,4.6,93,0.00,CLR,,0.89,WeatherDisplay:10.37,2013-07-03 23:45:00,
2013-07-03 19:51:00,70.7,68.6,30.13,South,180,4.6,0.0,93,0.00,CLR,,0.89,WeatherDisplay:10.37,2013-07-03 23:51:00,
2013-07-03 19:56:00,70.5,68.7,30.13,SW,225,0.0,0.0,94,0.00,CLR,,0.89,WeatherDisplay:10.37,2013-07-03 23:56:00,
2013-07-03 20:01:00,70.5,68.7,30.13,NE,45,1.3,0.0,94,0.00,CLR,,0.89,WeatherDisplay:10.37,2013-07-04 00:01:00,
2013-07-03 20:06:00,70.3,68.5,30.13,North,0,0.0,0.0,94,0.00,CLR,,0.89,WeatherDisplay:10.37,2013-07-04 00:06:00,
2013-07-03 20:11:00,70.2,68.7,30.13,North,0,0.0,0.0,95,0.00,CLR,,0.89,WeatherDisplay:10.37,2013-07-04 00:11:00,
2013-07-03 20:16:00,70.0,68.5,30.13,North,0,0.0,0.0,95,0.00,CLR,,0.89,WeatherDisplay:10.37,2013-07-04 00:16:00,
2013-07-03 20:23:00,70.0,68.5,30.14,West,270,0.0,0.0,95,0.00,CLR,,0.89,WeatherDisplay:10.37,2013-07-04 00:23:00,
2013-07-03 20:28:00,69.8,68.3,30.13,NW,315,0.0,0.0,95,0.00,CLR,,0.89,WeatherDisplay:10.37,2013-07-04 00:28:00,
2013-07-03 20:33:00,69.8,68.6,30.13,NW,315,0.0,0.0,96,0.00,CLR,,0.89,WeatherDisplay:10.37,2013-07-04 00:33:00,
2013-07-03 20:38:00,69.6,68.7,30.13,NW,315,0.0,0.0,97,0.00,CLR,,0.89,WeatherDisplay:10.37,2013-07-04 00:38:00,
2013-07-03 20:43:00,69.6,68.7,30.13,NW,315,0.0,0.0,97,0.00,CLR,,0.89,WeatherDisplay:10.37,2013-07-04 00:43:00,
2013-07-03 20:48:00,69.4,68.9,30.13,NW,315,0.0,0.0,98,0.00,CLR,,0.89,WeatherDisplay:10.37,2013-07-04 00:48:00,
2013-07-03 20:53:00,69.3,68.7,30.14,NW,315,0.0,0.0,98,0.00,CLR,,0.89,WeatherDisplay:10.37,2013-07-04 00:53:00,
2013-07-03 20:58:00,69.3,68.7,30.14,NW,315,0.0,0.0,98,0.00,CLR,,0.89,WeatherDisplay:10.37,2013-07-04 00:58:00,
2013-07-03 21:03:00,69.3,68.7,30.13,NW,315,0.0,0.0,98,0.00,CLR,,0.89,WeatherDisplay:10.37,2013-07-04 01:03:00,
2013-07-03 21:08:00,69.3,68.7,30.14,NW,315,0.0,0.0,98,0.00,CLR,,0.89,WeatherDisplay:10.37,2013-07-04 01:08:00,
2013-07-03 21:13:00,69.3,68.7,30.13,NW,315,0.0,0.0,98,0.00,CLR,,0.89,WeatherDisplay:10.37,2013-07-04 01:13:00,
2013-07-03 21:19:00,69.1,68.5,30.13,NW,315,0.0,0.0,98,0.00,CLR,,0.89,WeatherDisplay:10.37,2013-07-04 01:19:00,
2013-07-03 21:24:00,69.1,68.8,30.13,NW,315,0.0,0.0,99,0.00,CLR,,0.89,WeatherDisplay:10.37,2013-07-04 01:24:00,
2013-07-03 21:29:00,68.9,68.6,30.14,NW,315,0.0,0.0,99,0.00,CLR,,0.89,WeatherDisplay:10.37,2013-07-04 01:29:00,
2013-07-03 21:34:00,68.7,68.4,30.14,NW,315,0.0,0.0,99,0.00,CLR,,0.89,WeatherDisplay:10.37,2013-07-04 01:34:00,
2013-07-03 21:39:00,68.7,68.4,30.14,NW,315,0.0,0.0,99,0.00,CLR,,0.89,WeatherDisplay:10.37,2013-07-04 01:39:00,
2013-07-03 21:44:00,68.7,68.4,30.14,NW,317,0.0,0.0,99,0.00,CLR,,0.89,WeatherDisplay:10.37,2013-07-04 01:44:00,
2013-07-03 21:50:00,68.7,68.4,30.14,NNW,347,0.0,0.0,99,0.00,CLR,,0.89,WeatherDisplay:10.37,2013-07-04 01:50:00,
2013-07-03 21:54:00,68.7,68.4,30.14,North,0,0.0,0.0,99,0.00,CLR,,0.89,WeatherDisplay:10.37,2013-07-04 01:54:00,
2013-07-03 21:59:00,68.7,68.4,30.14,North,0,0.0,0.0,99,0.00,CLR,,0.89,WeatherDisplay:10.37,2013-07-04 01:59:00,
2013-07-03 22:04:00,68.7,68.4,30.14,North,0,0.0,0.0,99,0.00,CLR,,0.89,WeatherDisplay:10.37,2013-07-04 02:04:00,
2013-07-03 22:10:00,68.7,68.4,30.14,North,0,0.0,0.0,99,0.00,CLR,,0.89,WeatherDisplay:10.37,2013-07-04 02:10:00,
2013-07-03 22:14:00,68.7,68.4,30.15,NNW,341,0.0,0.0,99,0.00,CLR,,0.89,WeatherDisplay:10.37,2013-07-04 02:14:00,
2013-07-03 22:20:00,68.7,68.4,30.15,NW,315,0.0,0.0,99,0.00,CLR,,0.89,WeatherDisplay:10.37,2013-07-04 02:20:00,
2013-07-03 22:25:00,68.7,68.4,30.15,NW,315,0.0,0.0,99,0.00,CLR,,0.89,WeatherDisplay:10.37,2013-07-04 02:25:00,
2013-07-03 22:31:00,68.7,68.4,30.16,SW,225,0.0,0.0,99,0.00,CLR,,0.89,WeatherDisplay:10.37,2013-07-04 02:31:00,
2013-07-03 22:36:00,68.7,68.4,30.16,NW,315,0.0,0.0,99,0.00,CLR,,0.89,WeatherDisplay:10.37,2013-07-04 02:36:00,
2013-07-03 22:41:00,68.7,68.4,30.16,North,0,0.0,0.0,99,0.00,CLR,,0.89,WeatherDisplay:10.37,2013-07-04 02:41:00,
2013-07-03 22:47:00,68.7,68.4,30.16,North,0,0.0,0.0,99,0.00,CLR,,0.89,WeatherDisplay:10.37,2013-07-04 02:47:00,
2013-07-03 22:54:00,68.7,68.4,30.16,North,0,0.0,0.0,99,0.00,CLR,,0.89,WeatherDisplay:10.37,2013-07-04 02:54:00,
2013-07-03 22:59:00,68.7,68.4,30.16,North,0,0.0,0.0,99,0.00,CLR,,0.89,WeatherDisplay:10.37,2013-07-04 02:59:00,
2013-07-03 23:04:00,68.7,68.4,30.16,North,0,0.0,0.0,99,0.00,CLR,,0.89,WeatherDisplay:10.37,2013-07-04 03:04:00,
2013-07-03 23:10:00,68.7,68.4,30.15,North,0,0.0,0.0,99,0.00,RA,,0.90,WeatherDisplay:10.37,2013-07-04 03:10:00,
2013-07-03 23:15:00,68.7,68.4,30.16,North,0,0.0,0.0,99,0.01,RA,,0.90,WeatherDisplay:10.37,2013-07-04 03:15:00,
2013-07-03 23:20:00,68.5,68.2,30.16,North,0,0.0,0.0,99,0.01,CLR,,0.90,WeatherDisplay:10.37,2013-07-04 03:20:00,
2013-07-03 23:26:00,68.5,68.2,30.15,North,0,0.0,0.0,99,0.01,CLR,,0.90,WeatherDisplay:10.37,2013-07-04 03:26:00,
2013-07-03 23:31:00,68.5,68.2,30.15,North,0,0.0,0.0,99,0.01,CLR,,0.90,WeatherDisplay:10.37,2013-07-04 03:31:00,
2013-07-03 23:36:00,68.5,68.2,30.15,North,0,0.0,0.0,99,0.01,CLR,,0.90,WeatherDisplay:10.37,2013-07-04 03:36:00,
2013-07-03 23:42:00,68.5,68.2,30.15,North,0,0.0,0.0,99,0.01,CLR,,0.90,WeatherDisplay:10.37,2013-07-04 03:42:00,
2013-07-03 23:47:00,68.5,68.2,30.15,North,0,0.0,0.0,99,0.01,CLR,,0.90,WeatherDisplay:10.37,2013-07-04 03:47:00,
2013-07-03 23:52:00,68.4,68.1,30.15,North,0,0.0,0.0,99,0.01,CLR,,0.90,WeatherDisplay:10.37,2013-07-04 03:52:00,
2013-07-03 23:57:00,68.4,68.1,30.15,North,0,0.0,0.0,99,0.01,CLR,,0.90,WeatherDisplay:10.37,2013-07-04 03:57:00,